Ana Sayfa
METAR-TAF:

METAR-TAF

Havaalanları :

Chanute, Kansas, Amerika Birleşik Devletleri

Enlem: 37-40-13N, Boylam: 095-29-03W, yükseklik: 305 m

Güncel hava durumu gözlemi

Rapor saat 22:52 UTC de 23 dakika önce yapıldı.
Rüzgar güneydoğudan 7 kt
Sıcaklık 32°C
Nem 49%
Basınç 1022 hPa
Görüş mesafesi: 16.1 km
5500 ft yükseklikte az bulutlu

METAR: KCNU 202252Z AUTO 13007KT 10SM FEW055 32/20 A3018 RMK AO2 SLP206 T03170200

Saat: 18:15 (23:15 UTC)

Tahmin

Rapor saat 17:23 UTC de 5 saat ve 52 dakika önce yapıldı.
Ayın 20'si saat 18 UTC'den ayın 21'si saat 18 UTC'ye kadar geçerli Tahmin
Rüzgar güney/güneydoğudan 7 kt
Görüş mesafesi: 10 km
5000 ft yükseklikte parçalı bulutlu

TAF: KCNU 201723Z 2018/2118 16007KT P6SM SCT050

4.000'den fazla havaalanı için hava durumu gözlemleri ve tahminleri (METAR ve TAF raporları).

Kullanılabilir istasyonlar harita üzerinde sarı ve kırmızı noktalarla gösterilir.

İstasyonun adını görmek için fareyi noktanın üzerinde gezdirin.

Sonrasında hava gözlem ve tahminlerini görmek için tıklayın.

Haritayı değiştirmek için: yaklaştırmak için siyah artı işaretli yeşil düğmeye ve uzaklaştırmak için de eksi işaretli düğmeye hızla tıklayın; bitişik haritalar için yeşil okları kullanın.


METAR-TAF: